Soleil Weather Down

Nearby METAR Reports

 

KCNI - Canton/Cherokee, Georgia, USA
Distance from station: ENE 6mi, 10km
Updated: Fri, 10-Jul-2020 4:30am EDT
Clear
Clear
 Wind from calm
Wind: Calm
Temperature: 72°F , 22°C
Dew Point: 72°F , 22°C
Humidity: 100%
Barometer: 29.99 inHg , 1015.6 hPa
Clouds: Clear
Visibility: 7 miles , 11 km
2020/07/10 08:30 KCNI 100830Z AUTO 00000KT 7SM CLR 22/22 A2999 RMK AO2
KRYY - Marietta Mccolum, Georgia, USA
Distance from station: SSW 18mi, 29km
Updated: Fri, 10-Jul-2020 4:42am EDT
Mist, Overcast
Mist, Overcast
 Wind from calm
Wind: Calm
Temperature: 72°F , 22°C
Dew Point: 72°F , 22°C
Humidity: 100%
Barometer: 29.97 inHg , 1014.9 hPa
Summary: Mist
Clouds: Overcast
Visibility: 1 1/4 miles , 2 km
Cloud details: Overcast 100 ft
2020/07/10 08:42 KRYY 100842Z AUTO 00000KT 1 1/4SM BR OVC001 22/22 A2997 RMK AO2 PNO $
KVPC - Cartersville, Georgia, USA
Distance from station: WSW 22mi, 35km
Updated: Fri, 10-Jul-2020 3:53am EDT
Clear
Clear
 Wind from calm
Wind: Calm
Temperature: 72°F , 22°C
Dew Point: 70°F , 21°C
Humidity: 94%
Barometer: 29.96 inHg , 1014.6 hPa
Clouds: Clear
Visibility: 10 miles , 16 km
2020/07/10 07:53 KVPC 100753Z AUTO 00000KT 10SM CLR 22/21 A2996 RMK AO2 SLP129 T02220206
 
KMGE - Dobbins Afb/Mari, Georgia, USA
Distance from station: S 24mi, 39km
Updated: Fri, 10-Jul-2020 3:56am EDT
Mist, Clear
Mist, Clear
 Wind from calm
Wind: Calm
Temperature: 72°F , 22°C
Dew Point: 72°F , 22°C
Humidity: 100%
Barometer: 29.96 inHg , 1014.6 hPa
Summary: Mist
Clouds: Clear
Visibility: 6 miles , 10 km
2020/07/10 07:56 KMGE 100756Z AUTO 00000KT 6SM BR CLR 22/22 A2996 RMK AO2 RAB31E40 SLP136 P0000 T02170217 $
KPDK - Peachtree/Dekalb, Georgia, USA
Distance from station: SSE 29mi, 47km
Updated: Fri, 10-Jul-2020 3:53am EDT
Clear
Clear
 Wind from calm
Wind: Calm
Temperature: 70°F , 21°C
Dew Point: 70°F , 21°C
Humidity: 100%
Barometer: 29.96 inHg , 1014.6 hPa
Clouds: Clear
Visibility: 10 miles , 16 km
2020/07/10 07:53 KPDK 100753Z AUTO 00000KT 10SM CLR 21/21 A2996 RMK AO2 SLP126 T02110211
KFTY - Atlanta/Fulton, Georgia, USA
Distance from station: S 34mi, 54km
Updated: Fri, 10-Jul-2020 4:43am EDT
Fog, Overcast
Fog, Overcast
 Wind from calm
Wind: Calm
Temperature: 72°F , 22°C
Dew Point: 72°F , 22°C
Humidity: 100%
Barometer: 29.95 inHg , 1014.2 hPa
Summary: Fog
Clouds: Overcast
Visibility: 1/2 mile , 0.8 km
Cloud details: Overcast 200 ft
2020/07/10 08:43 KFTY 100843Z 00000KT 1/2SM FG VV002 22/22 A2995 RMK AO2 T02220217
 
KPUJ - Atlanta/Paulding, Georgia, USA
Distance from station: SW 34mi, 55km
Updated: Fri, 10-Jul-2020 4:35am EDT
Overcast
Overcast
 Wind from WNW
Wind: WNW 5 mph , 7 km/h
Temperature: 70°F , 21°C
Dew Point: 70°F , 21°C
Humidity: 100%
Barometer: 29.97 inHg , 1014.9 hPa
Clouds: Overcast
Visibility: 10 miles , 16 km
Cloud details: Partly cloudy 3300 ft
Mostly cloudy 8000 ft
Overcast 8500 ft
2020/07/10 08:35 KPUJ 100835Z AUTO 29004KT 10SM SCT033 BKN080 OVC085 21/21 A2997 RMK AO2
KDNN - Dalton, Georgia, USA
Distance from station: NW 37mi, 59km
Updated: Fri, 10-Jul-2020 4:35am EDT
Clear
Clear
 Wind from calm
Wind: Calm
Temperature: 73°F , 23°C
Dew Point: 70°F , 21°C
Humidity: 89%
Barometer: 29.97 inHg , 1014.9 hPa
Clouds: Clear
Visibility: 10 miles , 16 km
2020/07/10 08:35 KDNN 100835Z AUTO 00000KT 10SM CLR 23/21 A2997 RMK AO2
KLZU - Lawrenceville, Georgia, USA
Distance from station: ESE 37mi, 59km
Updated: Fri, 10-Jul-2020 3:56am EDT
Clear
Clear
 Wind from calm
Wind: Calm
Temperature: 72°F , 22°C
Dew Point: 72°F , 22°C
Humidity: 100%
Barometer: 29.95 inHg , 1014.2 hPa
Clouds: Clear
Visibility: 10 miles , 16 km
2020/07/10 07:56 KLZU 100756Z AUTO 00000KT 10SM CLR 22/22 A2995 RMK AO2 SLP143 T02170217
 
KRMG - Rome, Georgia, USA
Distance from station: W 38mi, 61km
Updated: Fri, 10-Jul-2020 3:53am EDT
Clear
Clear
 Wind from calm
Wind: Calm
Temperature: 73°F , 23°C
Dew Point: 70°F , 21°C
Humidity: 89%
Barometer: 29.94 inHg , 1013.9 hPa
Clouds: Clear
Visibility: 10 miles , 16 km
2020/07/10 07:53 KRMG 100753Z AUTO 00000KT 10SM CLR 23/21 A2994 RMK AO2 SLP128 T02280211
KGVL - Gainesville, Georgia, USA
Distance from station: E 39mi, 62km
Updated: Fri, 10-Jul-2020 3:53am EDT
Clear
Clear
 Wind from calm
Wind: Calm
Temperature: 72°F , 22°C
Dew Point: 70°F , 21°C
Humidity: 94%
Barometer: 29.98 inHg , 1015.2 hPa
Clouds: Clear
Visibility: 10 miles , 16 km
2020/07/10 07:53 KGVL 100753Z AUTO 00000KT 10SM CLR 22/21 A2998 RMK AO2 SLP133 T02220206
KATL - Atlanta, Georgia, USA
Distance from station: S 44mi, 71km
Updated: Fri, 10-Jul-2020 3:52am EDT
Mist, Overcast
Mist, Overcast
 Wind from W
Wind: W 3 mph , 6 km/h
Temperature: 73°F , 23°C
Dew Point: 72°F , 22°C
Humidity: 94%
Barometer: 29.96 inHg , 1014.6 hPa
Summary: Mist
Clouds: Overcast
Visibility: 3/4 mile , 1.2 km
Cloud details: Overcast 200 ft
2020/07/10 07:52 KATL 100752Z 26003KT 3/4SM R09R/2400VP6000FT BR OVC002 23/22 A2996 RMK AO2 SLP133 VIS S 1 1/4 T02280217